sensor_id;sensor_type;location;lat;lon;timestamp;P1;durP1;ratioP1;P2;durP2;ratioP2
27822;SDS011;29019;47.630;8.262;2023-05-10T00:03:24;1.20;;;1.10;;
27822;SDS011;29019;47.630;8.262;2023-05-10T00:07:25;2.20;;;1.55;;
27822;SDS011;29019;47.630;8.262;2023-05-10T00:11:25;3.08;;;1.70;;
27822;SDS011;29019;47.630;8.262;2023-05-10T00:15:26;4.78;;;1.20;;
27822;SDS011;29019;47.630;8.262;2023-05-10T00:19:26;1.67;;;1.00;;
27822;SDS011;29019;47.630;8.262;2023-05-10T00:23:27;3.72;;;1.77;;
27822;SDS011;29019;47.630;8.262;2023-05-10T00:27:28;2.92;;;1.30;;
27822;SDS011;29019;47.630;8.262;2023-05-10T00:31:28;1.77;;;1.35;;
27822;SDS011;29019;47.630;8.262;2023-05-10T00:35:29;2.58;;;1.20;;
27822;SDS011;29019;47.630;8.262;2023-05-10T00:39:30;1.58;;;1.20;;
27822;SDS011;29019;47.630;8.262;2023-05-10T00:43:30;1.42;;;0.90;;
27822;SDS011;29019;47.630;8.262;2023-05-10T00:47:31;2.27;;;1.30;;
27822;SDS011;29019;47.630;8.262;2023-05-10T00:51:32;2.17;;;1.15;;
27822;SDS011;29019;47.630;8.262;2023-05-10T00:55:33;2.17;;;1.30;;
27822;SDS011;29019;47.630;8.262;2023-05-10T00:59:33;1.52;;;1.10;;
27822;SDS011;29019;47.630;8.262;2023-05-10T01:03:34;2.20;;;1.02;;
27822;SDS011;29019;47.630;8.262;2023-05-10T01:07:35;2.63;;;1.17;;
27822;SDS011;29019;47.630;8.262;2023-05-10T01:11:37;1.15;;;0.95;;
27822;SDS011;29019;47.630;8.262;2023-05-10T01:15:39;1.95;;;1.02;;
27822;SDS011;29019;47.630;8.262;2023-05-10T01:37:07;1.02;;;0.90;;
27822;SDS011;29019;47.630;8.262;2023-05-10T01:41:18;2.08;;;1.05;;
27822;SDS011;29019;47.630;8.262;2023-05-10T01:45:39;1.55;;;0.90;;
27822;SDS011;29019;47.630;8.262;2023-05-10T01:49:49;1.85;;;1.10;;
27822;SDS011;29019;47.630;8.262;2023-05-10T01:53:54;1.00;;;0.90;;
27822;SDS011;29019;47.630;8.262;2023-05-10T01:58:02;1.70;;;1.20;;
27822;SDS011;29019;47.630;8.262;2023-05-10T02:02:13;6.53;;;1.17;;
27822;SDS011;29019;47.630;8.262;2023-05-10T02:06:15;2.95;;;1.20;;
27822;SDS011;29019;47.630;8.262;2023-05-10T02:10:18;2.83;;;1.10;;
27822;SDS011;29019;47.630;8.262;2023-05-10T02:18:20;3.40;;;1.52;;
27822;SDS011;29019;47.630;8.262;2023-05-10T02:22:23;2.60;;;1.50;;
27822;SDS011;29019;47.630;8.262;2023-05-10T02:26:25;3.60;;;1.38;;
27822;SDS011;29019;47.630;8.262;2023-05-10T02:30:26;2.58;;;1.50;;
27822;SDS011;29019;47.630;8.262;2023-05-10T02:34:29;3.22;;;1.50;;
27822;SDS011;29019;47.630;8.262;2023-05-10T02:38:31;2.25;;;1.33;;
27822;SDS011;29019;47.630;8.262;2023-05-10T02:42:35;2.65;;;1.40;;
27822;SDS011;29019;47.630;8.262;2023-05-10T02:46:37;2.40;;;1.00;;
27822;SDS011;29019;47.630;8.262;2023-05-10T02:50:38;3.17;;;1.00;;
27822;SDS011;29019;47.630;8.262;2023-05-10T02:54:44;2.05;;;0.95;;
27822;SDS011;29019;47.630;8.262;2023-05-10T02:58:47;1.23;;;1.05;;
27822;SDS011;29019;47.630;8.262;2023-05-10T03:02:47;2.40;;;1.10;;
27822;SDS011;29019;47.630;8.262;2023-05-10T03:06:48;0.95;;;0.82;;
27822;SDS011;29019;47.630;8.262;2023-05-10T03:11:10;2.33;;;1.10;;
27822;SDS011;29019;47.630;8.262;2023-05-10T03:15:37;1.40;;;1.05;;
27822;SDS011;29019;47.630;8.262;2023-05-10T03:19:56;3.88;;;1.52;;
27822;SDS011;29019;47.630;8.262;2023-05-10T03:24:07;3.22;;;1.55;;
27822;SDS011;29019;47.630;8.262;2023-05-10T03:28:09;3.50;;;1.40;;
27822;SDS011;29019;47.630;8.262;2023-05-10T03:32:10;4.03;;;1.30;;
27822;SDS011;29019;47.630;8.262;2023-05-10T03:36:10;4.47;;;1.42;;
27822;SDS011;29019;47.630;8.262;2023-05-10T03:40:11;2.83;;;1.17;;
27822;SDS011;29019;47.630;8.262;2023-05-10T03:44:12;2.97;;;1.83;;
27822;SDS011;29019;47.630;8.262;2023-05-10T03:48:12;2.30;;;1.17;;
27822;SDS011;29019;47.630;8.262;2023-05-10T03:52:13;2.50;;;1.17;;
27822;SDS011;29019;47.630;8.262;2023-05-10T03:56:14;2.88;;;1.25;;
27822;SDS011;29019;47.630;8.262;2023-05-10T04:00:15;2.45;;;1.20;;
27822;SDS011;29019;47.630;8.262;2023-05-10T04:04:16;1.88;;;1.00;;
27822;SDS011;29019;47.630;8.262;2023-05-10T04:08:18;2.53;;;1.20;;
27822;SDS011;29019;47.630;8.262;2023-05-10T04:12:19;1.58;;;1.00;;
27822;SDS011;29019;47.630;8.262;2023-05-10T04:16:19;2.88;;;1.30;;
27822;SDS011;29019;47.630;8.262;2023-05-10T04:20:20;3.38;;;1.13;;
27822;SDS011;29019;47.630;8.262;2023-05-10T04:24:21;1.13;;;0.88;;
27822;SDS011;29019;47.630;8.262;2023-05-10T04:28:21;1.35;;;1.00;;
27822;SDS011;29019;47.630;8.262;2023-05-10T04:32:22;1.95;;;1.00;;
27822;SDS011;29019;47.630;8.262;2023-05-10T04:36:23;4.18;;;1.30;;
27822;SDS011;29019;47.630;8.262;2023-05-10T04:40:23;1.98;;;1.10;;
27822;SDS011;29019;47.630;8.262;2023-05-10T04:44:24;1.95;;;1.20;;
27822;SDS011;29019;47.630;8.262;2023-05-10T04:48:25;4.07;;;1.07;;
27822;SDS011;29019;47.630;8.262;2023-05-10T04:52:25;1.50;;;1.00;;
27822;SDS011;29019;47.630;8.262;2023-05-10T04:56:26;2.15;;;1.20;;
27822;SDS011;29019;47.630;8.262;2023-05-10T05:00:27;1.60;;;1.03;;
27822;SDS011;29019;47.630;8.262;2023-05-10T05:04:27;1.63;;;1.08;;
27822;SDS011;29019;47.630;8.262;2023-05-10T05:08:29;1.58;;;0.85;;
27822;SDS011;29019;47.630;8.262;2023-05-10T05:12:30;3.58;;;1.08;;
27822;SDS011;29019;47.630;8.262;2023-05-10T05:16:30;1.63;;;0.97;;
27822;SDS011;29019;47.630;8.262;2023-05-10T05:24:37;2.75;;;0.98;;
27822;SDS011;29019;47.630;8.262;2023-05-10T05:28:38;2.35;;;1.70;;
27822;SDS011;29019;47.630;8.262;2023-05-10T05:32:38;3.40;;;1.08;;
27822;SDS011;29019;47.630;8.262;2023-05-10T05:36:39;1.98;;;0.80;;
27822;SDS011;29019;47.630;8.262;2023-05-10T05:40:40;2.85;;;1.10;;
27822;SDS011;29019;47.630;8.262;2023-05-10T05:44:40;2.05;;;0.85;;
27822;SDS011;29019;47.630;8.262;2023-05-10T05:48:41;1.35;;;0.68;;
27822;SDS011;29019;47.630;8.262;2023-05-10T05:52:42;1.73;;;0.95;;
27822;SDS011;29019;47.630;8.262;2023-05-10T05:56:42;1.60;;;1.05;;
27822;SDS011;29019;47.630;8.262;2023-05-10T06:00:44;1.58;;;0.82;;
27822;SDS011;29019;47.630;8.262;2023-05-10T06:04:45;1.02;;;0.82;;
27822;SDS011;29019;47.630;8.262;2023-05-10T06:12:46;1.03;;;0.83;;
27822;SDS011;29019;47.630;8.262;2023-05-10T06:16:47;1.38;;;0.85;;
27822;SDS011;29019;47.630;8.262;2023-05-10T06:20:49;2.35;;;1.00;;
27822;SDS011;29019;47.630;8.262;2023-05-10T06:24:50;0.95;;;0.90;;
27822;SDS011;29019;47.630;8.262;2023-05-10T06:28:50;0.90;;;0.70;;
27822;SDS011;29019;47.630;8.262;2023-05-10T06:32:51;1.00;;;0.90;;
27822;SDS011;29019;47.630;8.262;2023-05-10T06:36:52;1.30;;;0.80;;
27822;SDS011;29019;47.630;8.262;2023-05-10T06:40:52;1.67;;;1.00;;
27822;SDS011;29019;47.630;8.262;2023-05-10T06:44:53;0.98;;;0.80;;
27822;SDS011;29019;47.630;8.262;2023-05-10T06:48:54;1.67;;;0.73;;
27822;SDS011;29019;47.630;8.262;2023-05-10T06:52:54;1.10;;;0.85;;
27822;SDS011;29019;47.630;8.262;2023-05-10T06:56:55;0.80;;;0.77;;
27822;SDS011;29019;47.630;8.262;2023-05-10T07:01:01;2.10;;;0.90;;
27822;SDS011;29019;47.630;8.262;2023-05-10T07:05:02;1.15;;;1.05;;
27822;SDS011;29019;47.630;8.262;2023-05-10T07:09:03;0.95;;;0.70;;
27822;SDS011;29019;47.630;8.262;2023-05-10T07:13:04;1.63;;;0.75;;
27822;SDS011;29019;47.630;8.262;2023-05-10T07:17:05;2.38;;;0.82;;
27822;SDS011;29019;47.630;8.262;2023-05-10T07:21:05;1.60;;;0.95;;
27822;SDS011;29019;47.630;8.262;2023-05-10T07:25:06;1.55;;;0.85;;
27822;SDS011;29019;47.630;8.262;2023-05-10T07:29:07;1.13;;;0.77;;
27822;SDS011;29019;47.630;8.262;2023-05-10T07:33:08;1.15;;;0.80;;
27822;SDS011;29019;47.630;8.262;2023-05-10T07:37:10;0.82;;;0.80;;
27822;SDS011;29019;47.630;8.262;2023-05-10T07:41:11;1.60;;;0.80;;
27822;SDS011;29019;47.630;8.262;2023-05-10T07:45:12;1.30;;;0.80;;
27822;SDS011;29019;47.630;8.262;2023-05-10T07:49:13;1.17;;;0.88;;
27822;SDS011;29019;47.630;8.262;2023-05-10T07:53:13;1.27;;;0.95;;
27822;SDS011;29019;47.630;8.262;2023-05-10T07:57:15;1.25;;;0.80;;
27822;SDS011;29019;47.630;8.262;2023-05-10T08:01:17;1.08;;;0.90;;
27822;SDS011;29019;47.630;8.262;2023-05-10T08:05:18;0.93;;;0.63;;
27822;SDS011;29019;47.630;8.262;2023-05-10T08:09:18;1.63;;;0.77;;
27822;SDS011;29019;47.630;8.262;2023-05-10T08:13:23;0.88;;;0.85;;
27822;SDS011;29019;47.630;8.262;2023-05-10T08:17:24;0.80;;;0.75;;
27822;SDS011;29019;47.630;8.262;2023-05-10T08:21:24;0.70;;;0.65;;
27822;SDS011;29019;47.630;8.262;2023-05-10T08:29:26;1.00;;;0.80;;
27822;SDS011;29019;47.630;8.262;2023-05-10T08:33:27;0.80;;;0.80;;
27822;SDS011;29019;47.630;8.262;2023-05-10T08:37:29;0.77;;;0.65;;
27822;SDS011;29019;47.630;8.262;2023-05-10T08:41:30;0.68;;;0.68;;
27822;SDS011;29019;47.630;8.262;2023-05-10T08:45:38;1.27;;;0.90;;
27822;SDS011;29019;47.630;8.262;2023-05-10T08:49:41;0.70;;;0.65;;
27822;SDS011;29019;47.630;8.262;2023-05-10T08:53:43;2.35;;;0.60;;
27822;SDS011;29019;47.630;8.262;2023-05-10T08:57:45;0.70;;;0.70;;
27822;SDS011;29019;47.630;8.262;2023-05-10T09:01:46;1.00;;;0.60;;
27822;SDS011;29019;47.630;8.262;2023-05-10T09:05:49;1.55;;;0.68;;
27822;SDS011;29019;47.630;8.262;2023-05-10T09:09:49;0.70;;;0.50;;
27822;SDS011;29019;47.630;8.262;2023-05-10T09:13:51;0.90;;;0.75;;
27822;SDS011;29019;47.630;8.262;2023-05-10T09:17:53;0.77;;;0.60;;
27822;SDS011;29019;47.630;8.262;2023-05-10T09:21:55;1.92;;;0.60;;
27822;SDS011;29019;47.630;8.262;2023-05-10T09:26:02;0.70;;;0.60;;
27822;SDS011;29019;47.630;8.262;2023-05-10T09:30:07;0.93;;;0.60;;
27822;SDS011;29019;47.630;8.262;2023-05-10T09:34:08;1.05;;;0.65;;
27822;SDS011;29019;47.630;8.262;2023-05-10T09:38:09;0.47;;;0.47;;
27822;SDS011;29019;47.630;8.262;2023-05-10T09:42:10;1.05;;;0.70;;
27822;SDS011;29019;47.630;8.262;2023-05-10T09:46:11;0.50;;;0.50;;
27822;SDS011;29019;47.630;8.262;2023-05-10T09:50:11;0.50;;;0.50;;
27822;SDS011;29019;47.630;8.262;2023-05-10T09:54:13;0.88;;;0.70;;
27822;SDS011;29019;47.630;8.262;2023-05-10T09:58:15;0.60;;;0.60;;
27822;SDS011;29019;47.630;8.262;2023-05-10T10:02:16;1.25;;;0.68;;
27822;SDS011;29019;47.630;8.262;2023-05-10T10:06:20;1.30;;;0.70;;
27822;SDS011;29019;47.630;8.262;2023-05-10T10:10:21;2.08;;;0.60;;
27822;SDS011;29019;47.630;8.262;2023-05-10T10:14:22;0.60;;;0.60;;
27822;SDS011;29019;47.630;8.262;2023-05-10T10:18:26;2.08;;;0.95;;
27822;SDS011;29019;47.630;8.262;2023-05-10T10:22:28;1.17;;;0.80;;
27822;SDS011;29019;47.630;8.262;2023-05-10T10:26:29;0.45;;;0.45;;
27822;SDS011;29019;47.630;8.262;2023-05-10T10:30:39;0.75;;;0.70;;
27822;SDS011;29019;47.630;8.262;2023-05-10T10:34:42;0.60;;;0.60;;
27822;SDS011;29019;47.630;8.262;2023-05-10T10:42:46;0.52;;;0.50;;
27822;SDS011;29019;47.630;8.262;2023-05-10T10:47:32;0.55;;;0.50;;
27822;SDS011;29019;47.630;8.262;2023-05-10T10:51:23;0.70;;;0.50;;
27822;SDS011;29019;47.630;8.262;2023-05-10T10:55:24;1.48;;;0.50;;
27822;SDS011;29019;47.630;8.262;2023-05-10T10:59:26;0.65;;;0.55;;
27822;SDS011;29019;47.630;8.262;2023-05-10T11:03:28;0.50;;;0.50;;
27822;SDS011;29019;47.630;8.262;2023-05-10T11:07:28;0.90;;;0.55;;
27822;SDS011;29019;47.630;8.262;2023-05-10T11:11:29;1.33;;;0.60;;
27822;SDS011;29019;47.630;8.262;2023-05-10T11:15:33;0.85;;;0.70;;
27822;SDS011;29019;47.630;8.262;2023-05-10T11:19:36;0.80;;;0.70;;
27822;SDS011;29019;47.630;8.262;2023-05-10T11:27:39;0.50;;;0.50;;
27822;SDS011;29019;47.630;8.262;2023-05-10T11:31:42;0.57;;;0.55;;
27822;SDS011;29019;47.630;8.262;2023-05-10T11:35:45;1.33;;;0.57;;
27822;SDS011;29019;47.630;8.262;2023-05-10T11:39:46;0.73;;;0.50;;
27822;SDS011;29019;47.630;8.262;2023-05-10T11:43:50;0.50;;;0.50;;
27822;SDS011;29019;47.630;8.262;2023-05-10T11:47:52;0.68;;;0.55;;
27822;SDS011;29019;47.630;8.262;2023-05-10T11:51:53;0.63;;;0.63;;
27822;SDS011;29019;47.630;8.262;2023-05-10T11:56:08;0.85;;;0.63;;
27822;SDS011;29019;47.630;8.262;2023-05-10T12:00:09;1.30;;;0.55;;
27822;SDS011;29019;47.630;8.262;2023-05-10T12:08:12;0.77;;;0.60;;
27822;SDS011;29019;47.630;8.262;2023-05-10T12:12:19;1.00;;;0.50;;
27822;SDS011;29019;47.630;8.262;2023-05-10T12:16:21;1.07;;;0.70;;
27822;SDS011;29019;47.630;8.262;2023-05-10T12:20:28;0.85;;;0.60;;
27822;SDS011;29019;47.630;8.262;2023-05-10T12:28:30;0.60;;;0.60;;
27822;SDS011;29019;47.630;8.262;2023-05-10T12:32:38;0.73;;;0.50;;
27822;SDS011;29019;47.630;8.262;2023-05-10T12:36:39;0.50;;;0.50;;
27822;SDS011;29019;47.630;8.262;2023-05-10T12:40:40;0.57;;;0.50;;
27822;SDS011;29019;47.630;8.262;2023-05-10T12:44:40;0.43;;;0.43;;
27822;SDS011;29019;47.630;8.262;2023-05-10T12:48:42;0.90;;;0.68;;
27822;SDS011;29019;47.630;8.262;2023-05-10T12:52:43;0.75;;;0.60;;
27822;SDS011;29019;47.630;8.262;2023-05-10T12:56:44;1.00;;;0.70;;
27822;SDS011;29019;47.630;8.262;2023-05-10T13:00:44;0.47;;;0.45;;
27822;SDS011;29019;47.630;8.262;2023-05-10T13:04:45;0.73;;;0.60;;
27822;SDS011;29019;47.630;8.262;2023-05-10T13:08:46;0.65;;;0.65;;
27822;SDS011;29019;47.630;8.262;2023-05-10T13:12:47;1.33;;;0.60;;
27822;SDS011;29019;47.630;8.262;2023-05-10T13:16:47;0.47;;;0.45;;
27822;SDS011;29019;47.630;8.262;2023-05-10T13:20:48;1.27;;;1.10;;
27822;SDS011;29019;47.630;8.262;2023-05-10T13:28:50;0.67;;;0.50;;
27822;SDS011;29019;47.630;8.262;2023-05-10T13:36:52;2.67;;;0.80;;
27822;SDS011;29019;47.630;8.262;2023-05-10T13:40:53;0.57;;;0.57;;
27822;SDS011;29019;47.630;8.262;2023-05-10T13:44:54;0.50;;;0.50;;
27822;SDS011;29019;47.630;8.262;2023-05-10T13:48:55;0.73;;;0.65;;
27822;SDS011;29019;47.630;8.262;2023-05-10T13:52:56;0.70;;;0.50;;
27822;SDS011;29019;47.630;8.262;2023-05-10T13:56:57;0.50;;;0.50;;
27822;SDS011;29019;47.630;8.262;2023-05-10T14:00:59;0.65;;;0.52;;
27822;SDS011;29019;47.630;8.262;2023-05-10T14:04:59;0.53;;;0.50;;
27822;SDS011;29019;47.630;8.262;2023-05-10T14:09:00;1.48;;;0.40;;
27822;SDS011;29019;47.630;8.262;2023-05-10T14:13:01;1.13;;;0.60;;
27822;SDS011;29019;47.630;8.262;2023-05-10T14:17:03;0.70;;;0.57;;
27822;SDS011;29019;47.630;8.262;2023-05-10T14:21:04;0.43;;;0.38;;
27822;SDS011;29019;47.630;8.262;2023-05-10T14:25:04;0.40;;;0.40;;
27822;SDS011;29019;47.630;8.262;2023-05-10T14:29:05;1.38;;;0.73;;
27822;SDS011;29019;47.630;8.262;2023-05-10T14:33:06;0.55;;;0.47;;
27822;SDS011;29019;47.630;8.262;2023-05-10T14:37:09;1.15;;;0.73;;
27822;SDS011;29019;47.630;8.262;2023-05-10T14:41:11;0.43;;;0.43;;
27822;SDS011;29019;47.630;8.262;2023-05-10T14:45:14;0.70;;;0.50;;
27822;SDS011;29019;47.630;8.262;2023-05-10T14:49:15;0.55;;;0.55;;
27822;SDS011;29019;47.630;8.262;2023-05-10T14:53:15;0.70;;;0.70;;
27822;SDS011;29019;47.630;8.262;2023-05-10T14:57:16;0.60;;;0.60;;
27822;SDS011;29019;47.630;8.262;2023-05-10T15:01:17;0.80;;;0.43;;
27822;SDS011;29019;47.630;8.262;2023-05-10T15:05:17;0.57;;;0.57;;
27822;SDS011;29019;47.630;8.262;2023-05-10T15:09:18;0.43;;;0.43;;
27822;SDS011;29019;47.630;8.262;2023-05-10T15:13:18;0.45;;;0.45;;
27822;SDS011;29019;47.630;8.262;2023-05-10T15:17:19;0.88;;;0.60;;
27822;SDS011;29019;47.630;8.262;2023-05-10T15:21:20;0.68;;;0.60;;
27822;SDS011;29019;47.630;8.262;2023-05-10T15:29:23;2.47;;;0.63;;
27822;SDS011;29019;47.630;8.262;2023-05-10T15:33:24;0.77;;;0.60;;
27822;SDS011;29019;47.630;8.262;2023-05-10T15:37:25;0.52;;;0.40;;
27822;SDS011;29019;47.630;8.262;2023-05-10T15:41:25;0.73;;;0.50;;
27822;SDS011;29019;47.630;8.262;2023-05-10T15:45:26;0.85;;;0.60;;
27822;SDS011;29019;47.630;8.262;2023-05-10T15:49:27;0.60;;;0.50;;
27822;SDS011;29019;47.630;8.262;2023-05-10T15:53:28;0.85;;;0.55;;
27822;SDS011;29019;47.630;8.262;2023-05-10T15:57:28;1.10;;;0.52;;
27822;SDS011;29019;47.630;8.262;2023-05-10T16:01:29;1.02;;;0.45;;
27822;SDS011;29019;47.630;8.262;2023-05-10T16:05:31;2.83;;;0.98;;
27822;SDS011;29019;47.630;8.262;2023-05-10T16:09:32;1.25;;;0.75;;
27822;SDS011;29019;47.630;8.262;2023-05-10T16:13:33;0.60;;;0.60;;
27822;SDS011;29019;47.630;8.262;2023-05-10T16:17:33;0.60;;;0.60;;
27822;SDS011;29019;47.630;8.262;2023-05-10T16:21:34;2.08;;;0.60;;
27822;SDS011;29019;47.630;8.262;2023-05-10T16:25:35;1.33;;;0.50;;
27822;SDS011;29019;47.630;8.262;2023-05-10T16:29:36;1.70;;;0.52;;
27822;SDS011;29019;47.630;8.262;2023-05-10T16:33:36;0.50;;;0.50;;
27822;SDS011;29019;47.630;8.262;2023-05-10T16:37:37;1.08;;;0.50;;
27822;SDS011;29019;47.630;8.262;2023-05-10T16:41:38;1.13;;;1.00;;
27822;SDS011;29019;47.630;8.262;2023-05-10T16:45:38;0.75;;;0.50;;
27822;SDS011;29019;47.630;8.262;2023-05-10T16:49:39;1.65;;;0.68;;
27822;SDS011;29019;47.630;8.262;2023-05-10T16:53:40;1.40;;;0.60;;
27822;SDS011;29019;47.630;8.262;2023-05-10T16:57:41;0.65;;;0.57;;
27822;SDS011;29019;47.630;8.262;2023-05-10T17:01:41;0.50;;;0.40;;
27822;SDS011;29019;47.630;8.262;2023-05-10T17:05:42;1.25;;;0.57;;
27822;SDS011;29019;47.630;8.262;2023-05-10T17:09:43;3.15;;;0.70;;
27822;SDS011;29019;47.630;8.262;2023-05-10T17:13:44;1.50;;;0.60;;
27822;SDS011;29019;47.630;8.262;2023-05-10T17:17:45;1.70;;;0.70;;
27822;SDS011;29019;47.630;8.262;2023-05-10T17:21:46;0.82;;;0.63;;
27822;SDS011;29019;47.630;8.262;2023-05-10T17:25:47;2.60;;;0.50;;
27822;SDS011;29019;47.630;8.262;2023-05-10T17:29:47;1.00;;;0.38;;
27822;SDS011;29019;47.630;8.262;2023-05-10T17:33:48;3.88;;;0.63;;
27822;SDS011;29019;47.630;8.262;2023-05-10T17:37:49;2.25;;;0.40;;
27822;SDS011;29019;47.630;8.262;2023-05-10T17:41:49;2.40;;;0.90;;
27822;SDS011;29019;47.630;8.262;2023-05-10T17:45:50;10.70;;;4.07;;
27822;SDS011;29019;47.630;8.262;2023-05-10T17:49:51;9.27;;;3.23;;
27822;SDS011;29019;47.630;8.262;2023-05-10T17:53:51;6.85;;;3.20;;
27822;SDS011;29019;47.630;8.262;2023-05-10T17:57:52;5.88;;;2.70;;
27822;SDS011;29019;47.630;8.262;2023-05-10T18:01:52;6.57;;;2.90;;
27822;SDS011;29019;47.630;8.262;2023-05-10T18:05:53;9.95;;;3.08;;
27822;SDS011;29019;47.630;8.262;2023-05-10T18:09:55;4.63;;;2.28;;
27822;SDS011;29019;47.630;8.262;2023-05-10T18:13:56;4.38;;;2.30;;
27822;SDS011;29019;47.630;8.262;2023-05-10T18:17:56;3.25;;;2.08;;
27822;SDS011;29019;47.630;8.262;2023-05-10T18:21:57;4.25;;;1.83;;
27822;SDS011;29019;47.630;8.262;2023-05-10T18:25:58;7.57;;;2.10;;
27822;SDS011;29019;47.630;8.262;2023-05-10T18:29:59;4.43;;;1.90;;
27822;SDS011;29019;47.630;8.262;2023-05-10T18:33:59;5.43;;;2.10;;
27822;SDS011;29019;47.630;8.262;2023-05-10T18:38:00;25.00;;;10.50;;
27822;SDS011;29019;47.630;8.262;2023-05-10T18:42:02;17.60;;;8.55;;
27822;SDS011;29019;47.630;8.262;2023-05-10T18:46:03;19.98;;;7.68;;
27822;SDS011;29019;47.630;8.262;2023-05-10T18:50:04;22.40;;;7.35;;
27822;SDS011;29019;47.630;8.262;2023-05-10T18:54:05;15.68;;;6.45;;
27822;SDS011;29019;47.630;8.262;2023-05-10T18:58:06;13.77;;;6.65;;
27822;SDS011;29019;47.630;8.262;2023-05-10T19:02:06;13.77;;;5.57;;
27822;SDS011;29019;47.630;8.262;2023-05-10T19:06:07;10.40;;;5.28;;
27822;SDS011;29019;47.630;8.262;2023-05-10T19:10:11;11.30;;;5.20;;
27822;SDS011;29019;47.630;8.262;2023-05-10T19:14:13;9.73;;;4.90;;
27822;SDS011;29019;47.630;8.262;2023-05-10T19:22:15;10.98;;;4.78;;
27822;SDS011;29019;47.630;8.262;2023-05-10T19:26:15;11.60;;;5.10;;
27822;SDS011;29019;47.630;8.262;2023-05-10T19:30:16;13.55;;;4.70;;
27822;SDS011;29019;47.630;8.262;2023-05-10T19:34:17;10.02;;;4.28;;
27822;SDS011;29019;47.630;8.262;2023-05-10T19:38:22;12.45;;;4.50;;
27822;SDS011;29019;47.630;8.262;2023-05-10T19:42:23;9.68;;;4.03;;
27822;SDS011;29019;47.630;8.262;2023-05-10T19:46:24;8.23;;;4.28;;
27822;SDS011;29019;47.630;8.262;2023-05-10T19:50:25;10.18;;;4.40;;
27822;SDS011;29019;47.630;8.262;2023-05-10T19:54:25;8.68;;;4.28;;
27822;SDS011;29019;47.630;8.262;2023-05-10T19:58:26;9.43;;;4.20;;
27822;SDS011;29019;47.630;8.262;2023-05-10T20:02:27;8.93;;;3.97;;
27822;SDS011;29019;47.630;8.262;2023-05-10T20:06:28;6.97;;;3.40;;
27822;SDS011;29019;47.630;8.262;2023-05-10T20:10:29;7.95;;;3.90;;
27822;SDS011;29019;47.630;8.262;2023-05-10T20:14:29;7.15;;;3.40;;
27822;SDS011;29019;47.630;8.262;2023-05-10T20:18:30;13.57;;;4.35;;
27822;SDS011;29019;47.630;8.262;2023-05-10T20:22:31;8.63;;;4.32;;
27822;SDS011;29019;47.630;8.262;2023-05-10T20:26:31;6.53;;;3.45;;
27822;SDS011;29019;47.630;8.262;2023-05-10T20:34:33;5.97;;;3.30;;
27822;SDS011;29019;47.630;8.262;2023-05-10T20:38:34;10.88;;;4.53;;
27822;SDS011;29019;47.630;8.262;2023-05-10T20:46:36;7.30;;;3.43;;
27822;SDS011;29019;47.630;8.262;2023-05-10T20:50:37;8.60;;;3.42;;
27822;SDS011;29019;47.630;8.262;2023-05-10T20:54:37;35.47;;;15.35;;
27822;SDS011;29019;47.630;8.262;2023-05-10T20:58:38;24.45;;;10.93;;
27822;SDS011;29019;47.630;8.262;2023-05-10T21:02:43;20.53;;;9.67;;
27822;SDS011;29019;47.630;8.262;2023-05-10T21:06:44;18.83;;;8.55;;
27822;SDS011;29019;47.630;8.262;2023-05-10T21:10:45;18.50;;;7.30;;
27822;SDS011;29019;47.630;8.262;2023-05-10T21:14:45;15.40;;;7.55;;
27822;SDS011;29019;47.630;8.262;2023-05-10T21:18:46;14.65;;;7.57;;
27822;SDS011;29019;47.630;8.262;2023-05-10T21:22:47;13.77;;;7.38;;
27822;SDS011;29019;47.630;8.262;2023-05-10T21:26:48;13.73;;;7.00;;
27822;SDS011;29019;47.630;8.262;2023-05-10T21:30:48;14.52;;;6.60;;
27822;SDS011;29019;47.630;8.262;2023-05-10T21:34:50;12.70;;;6.35;;
27822;SDS011;29019;47.630;8.262;2023-05-10T21:38:50;13.20;;;6.00;;
27822;SDS011;29019;47.630;8.262;2023-05-10T21:42:51;14.38;;;6.72;;
27822;SDS011;29019;47.630;8.262;2023-05-10T21:46:52;15.82;;;6.15;;
27822;SDS011;29019;47.630;8.262;2023-05-10T21:50:52;12.98;;;5.95;;
27822;SDS011;29019;47.630;8.262;2023-05-10T21:54:54;16.00;;;6.00;;
27822;SDS011;29019;47.630;8.262;2023-05-10T21:58:55;11.68;;;5.65;;
27822;SDS011;29019;47.630;8.262;2023-05-10T22:02:56;12.70;;;5.22;;
27822;SDS011;29019;47.630;8.262;2023-05-10T22:06:56;10.85;;;5.63;;
27822;SDS011;29019;47.630;8.262;2023-05-10T22:10:57;11.32;;;5.25;;
27822;SDS011;29019;47.630;8.262;2023-05-10T22:14:58;13.95;;;5.97;;
27822;SDS011;29019;47.630;8.262;2023-05-10T22:18:58;10.60;;;5.28;;
27822;SDS011;29019;47.630;8.262;2023-05-10T22:22:59;9.52;;;4.57;;
27822;SDS011;29019;47.630;8.262;2023-05-10T22:27:00;8.90;;;4.97;;
27822;SDS011;29019;47.630;8.262;2023-05-10T22:31:01;9.88;;;4.50;;
27822;SDS011;29019;47.630;8.262;2023-05-10T22:35:02;10.48;;;5.45;;
27822;SDS011;29019;47.630;8.262;2023-05-10T22:39:03;9.80;;;4.60;;
27822;SDS011;29019;47.630;8.262;2023-05-10T22:43:04;10.37;;;5.13;;
27822;SDS011;29019;47.630;8.262;2023-05-10T22:47:04;9.50;;;4.70;;
27822;SDS011;29019;47.630;8.262;2023-05-10T22:51:07;9.27;;;4.35;;
27822;SDS011;29019;47.630;8.262;2023-05-10T22:55:08;8.70;;;4.32;;
27822;SDS011;29019;47.630;8.262;2023-05-10T22:59:09;7.85;;;3.90;;
27822;SDS011;29019;47.630;8.262;2023-05-10T23:03:09;9.00;;;4.28;;
27822;SDS011;29019;47.630;8.262;2023-05-10T23:07:10;7.60;;;3.75;;
27822;SDS011;29019;47.630;8.262;2023-05-10T23:11:11;9.07;;;3.90;;
27822;SDS011;29019;47.630;8.262;2023-05-10T23:15:11;11.68;;;4.38;;
27822;SDS011;29019;47.630;8.262;2023-05-10T23:19:12;9.13;;;4.05;;
27822;SDS011;29019;47.630;8.262;2023-05-10T23:23:13;9.18;;;3.65;;
27822;SDS011;29019;47.630;8.262;2023-05-10T23:27:13;7.85;;;4.15;;
27822;SDS011;29019;47.630;8.262;2023-05-10T23:31:14;7.80;;;3.67;;
27822;SDS011;29019;47.630;8.262;2023-05-10T23:35:15;7.10;;;3.72;;
27822;SDS011;29019;47.630;8.262;2023-05-10T23:39:16;8.73;;;4.05;;
27822;SDS011;29019;47.630;8.262;2023-05-10T23:43:16;7.32;;;3.58;;
27822;SDS011;29019;47.630;8.262;2023-05-10T23:47:18;7.65;;;4.28;;
27822;SDS011;29019;47.630;8.262;2023-05-10T23:51:19;7.37;;;3.60;;
27822;SDS011;29019;47.630;8.262;2023-05-10T23:55:20;8.50;;;4.05;;
27822;SDS011;29019;47.630;8.262;2023-05-10T23:59:20;7.15;;;3.22;;
